sensor_id;sensor_type;location;lat;lon;timestamp;temperature;humidity
12481;DHT22;6305;48.398;11.762;2022-11-15T00:01:07;0.70;99.90
12481;DHT22;6305;48.398;11.762;2022-11-15T00:03:34;0.70;99.90
12481;DHT22;6305;48.398;11.762;2022-11-15T00:06:03;0.70;99.90
12481;DHT22;6305;48.398;11.762;2022-11-15T00:08:31;0.60;99.90
12481;DHT22;6305;48.398;11.762;2022-11-15T00:10:59;0.60;99.90
12481;DHT22;6305;48.398;11.762;2022-11-15T00:13:27;0.50;99.90
12481;DHT22;6305;48.398;11.762;2022-11-15T00:15:56;0.50;99.90
12481;DHT22;6305;48.398;11.762;2022-11-15T00:18:23;0.40;99.90
12481;DHT22;6305;48.398;11.762;2022-11-15T00:20:50;0.30;99.90
12481;DHT22;6305;48.398;11.762;2022-11-15T00:23:18;0.20;99.90
12481;DHT22;6305;48.398;11.762;2022-11-15T00:25:45;0.20;99.90
12481;DHT22;6305;48.398;11.762;2022-11-15T00:28:12;0.10;99.90
12481;DHT22;6305;48.398;11.762;2022-11-15T00:30:39;0.10;99.90
12481;DHT22;6305;48.398;11.762;2022-11-15T00:33:06;0.10;99.90
12481;DHT22;6305;48.398;11.762;2022-11-15T00:35:34;0.10;99.90
12481;DHT22;6305;48.398;11.762;2022-11-15T00:38:02;0.20;99.90
12481;DHT22;6305;48.398;11.762;2022-11-15T00:40:30;0.30;99.90
12481;DHT22;6305;48.398;11.762;2022-11-15T00:42:57;0.30;99.90
12481;DHT22;6305;48.398;11.762;2022-11-15T00:45:24;0.30;99.90
12481;DHT22;6305;48.398;11.762;2022-11-15T00:47:51;0.30;99.90
12481;DHT22;6305;48.398;11.762;2022-11-15T00:50:19;0.30;99.90
12481;DHT22;6305;48.398;11.762;2022-11-15T00:52:45;0.20;99.90
12481;DHT22;6305;48.398;11.762;2022-11-15T00:55:13;0.20;99.90
12481;DHT22;6305;48.398;11.762;2022-11-15T00:57:43;0.20;99.90
12481;DHT22;6305;48.398;11.762;2022-11-15T01:00:10;0.20;99.90
12481;DHT22;6305;48.398;11.762;2022-11-15T01:02:37;0.10;99.90
12481;DHT22;6305;48.398;11.762;2022-11-15T01:05:05;0.10;99.90
12481;DHT22;6305;48.398;11.762;2022-11-15T01:07:36;0.10;99.90
12481;DHT22;6305;48.398;11.762;2022-11-15T01:10:03;0.00;99.90
12481;DHT22;6305;48.398;11.762;2022-11-15T01:12:30;0.00;99.90
12481;DHT22;6305;48.398;11.762;2022-11-15T01:14:58;-0.10;99.90
12481;DHT22;6305;48.398;11.762;2022-11-15T01:17:25;-0.10;99.90
12481;DHT22;6305;48.398;11.762;2022-11-15T01:19:53;-0.10;99.90
12481;DHT22;6305;48.398;11.762;2022-11-15T01:22:19;-0.20;99.90
12481;DHT22;6305;48.398;11.762;2022-11-15T01:24:46;-0.20;99.90
12481;DHT22;6305;48.398;11.762;2022-11-15T01:27:13;-0.20;99.90
12481;DHT22;6305;48.398;11.762;2022-11-15T01:29:40;-0.30;99.90
12481;DHT22;6305;48.398;11.762;2022-11-15T01:32:08;-0.40;99.90
12481;DHT22;6305;48.398;11.762;2022-11-15T01:34:36;-0.40;99.90
12481;DHT22;6305;48.398;11.762;2022-11-15T01:37:02;-0.30;99.90
12481;DHT22;6305;48.398;11.762;2022-11-15T01:39:29;-0.30;99.90
12481;DHT22;6305;48.398;11.762;2022-11-15T01:41:56;-0.30;99.90
12481;DHT22;6305;48.398;11.762;2022-11-15T01:44:38;-0.30;99.90
12481;DHT22;6305;48.398;11.762;2022-11-15T01:47:09;-0.30;99.90
12481;DHT22;6305;48.398;11.762;2022-11-15T01:49:40;-0.40;99.90
12481;DHT22;6305;48.398;11.762;2022-11-15T01:52:11;-0.40;99.90
12481;DHT22;6305;48.398;11.762;2022-11-15T01:54:39;-0.40;99.90
12481;DHT22;6305;48.398;11.762;2022-11-15T01:57:08;-0.20;99.90
12481;DHT22;6305;48.398;11.762;2022-11-15T01:59:37;-0.20;99.90
12481;DHT22;6305;48.398;11.762;2022-11-15T02:02:04;-0.10;99.90
12481;DHT22;6305;48.398;11.762;2022-11-15T02:04:35;-0.10;99.90
12481;DHT22;6305;48.398;11.762;2022-11-15T02:07:04;-0.10;99.90
12481;DHT22;6305;48.398;11.762;2022-11-15T02:09:31;-0.10;99.90
12481;DHT22;6305;48.398;11.762;2022-11-15T02:11:59;-0.20;99.90
12481;DHT22;6305;48.398;11.762;2022-11-15T02:14:27;-0.20;99.90
12481;DHT22;6305;48.398;11.762;2022-11-15T02:17:02;-0.30;99.90
12481;DHT22;6305;48.398;11.762;2022-11-15T02:19:55;-0.30;99.90
12481;DHT22;6305;48.398;11.762;2022-11-15T02:22:41;-0.20;99.90
12481;DHT22;6305;48.398;11.762;2022-11-15T02:25:26;-0.20;99.90
12481;DHT22;6305;48.398;11.762;2022-11-15T02:28:16;-0.10;99.90
12481;DHT22;6305;48.398;11.762;2022-11-15T02:30:55;-0.20;99.90
12481;DHT22;6305;48.398;11.762;2022-11-15T02:33:33;-0.10;99.90
12481;DHT22;6305;48.398;11.762;2022-11-15T02:36:02;0.00;99.90
12481;DHT22;6305;48.398;11.762;2022-11-15T02:38:37;0.10;99.90
12481;DHT22;6305;48.398;11.762;2022-11-15T02:41:11;0.10;99.90
12481;DHT22;6305;48.398;11.762;2022-11-15T02:43:43;0.00;99.90
12481;DHT22;6305;48.398;11.762;2022-11-15T02:46:31;0.00;99.90
12481;DHT22;6305;48.398;11.762;2022-11-15T02:49:16;0.10;99.90
12481;DHT22;6305;48.398;11.762;2022-11-15T02:51:46;0.20;99.90
12481;DHT22;6305;48.398;11.762;2022-11-15T02:54:17;0.20;99.90
12481;DHT22;6305;48.398;11.762;2022-11-15T02:56:46;0.10;99.90
12481;DHT22;6305;48.398;11.762;2022-11-15T03:02:26;0.00;99.90
12481;DHT22;6305;48.398;11.762;2022-11-15T03:05:00;-0.10;99.90
12481;DHT22;6305;48.398;11.762;2022-11-15T03:07:34;-0.10;99.90
12481;DHT22;6305;48.398;11.762;2022-11-15T03:10:06;0.00;99.90
12481;DHT22;6305;48.398;11.762;2022-11-15T03:12:40;0.10;99.90
12481;DHT22;6305;48.398;11.762;2022-11-15T03:15:15;0.10;99.90
12481;DHT22;6305;48.398;11.762;2022-11-15T03:17:51;0.20;99.90
12481;DHT22;6305;48.398;11.762;2022-11-15T03:20:20;0.20;99.90
12481;DHT22;6305;48.398;11.762;2022-11-15T03:22:48;0.20;99.90
12481;DHT22;6305;48.398;11.762;2022-11-15T03:25:18;0.10;99.90
12481;DHT22;6305;48.398;11.762;2022-11-15T03:27:50;0.10;99.90
12481;DHT22;6305;48.398;11.762;2022-11-15T03:30:18;0.00;99.90
12481;DHT22;6305;48.398;11.762;2022-11-15T03:32:49;0.00;99.90
12481;DHT22;6305;48.398;11.762;2022-11-15T03:35:18;0.00;99.90
12481;DHT22;6305;48.398;11.762;2022-11-15T03:37:50;-0.10;99.90
12481;DHT22;6305;48.398;11.762;2022-11-15T03:40:24;-0.10;99.90
12481;DHT22;6305;48.398;11.762;2022-11-15T03:42:57;-0.20;99.90
12481;DHT22;6305;48.398;11.762;2022-11-15T03:45:29;-0.30;99.90
12481;DHT22;6305;48.398;11.762;2022-11-15T03:48:02;-0.30;99.90
12481;DHT22;6305;48.398;11.762;2022-11-15T03:50:32;-0.40;99.90
12481;DHT22;6305;48.398;11.762;2022-11-15T03:52:59;-0.50;99.90
12481;DHT22;6305;48.398;11.762;2022-11-15T03:55:25;-0.40;99.90
12481;DHT22;6305;48.398;11.762;2022-11-15T03:57:55;-0.40;99.90
12481;DHT22;6305;48.398;11.762;2022-11-15T04:00:24;-0.40;99.90
12481;DHT22;6305;48.398;11.762;2022-11-15T04:02:51;-0.40;99.90
12481;DHT22;6305;48.398;11.762;2022-11-15T04:05:19;-0.30;99.90
12481;DHT22;6305;48.398;11.762;2022-11-15T04:07:46;-0.30;99.90
12481;DHT22;6305;48.398;11.762;2022-11-15T04:10:13;-0.40;99.90
12481;DHT22;6305;48.398;11.762;2022-11-15T04:12:42;-0.40;99.90
12481;DHT22;6305;48.398;11.762;2022-11-15T04:15:11;-0.50;99.90
12481;DHT22;6305;48.398;11.762;2022-11-15T04:17:40;-0.50;99.90
12481;DHT22;6305;48.398;11.762;2022-11-15T04:20:10;-0.50;99.90
12481;DHT22;6305;48.398;11.762;2022-11-15T04:22:57;-0.50;99.90
12481;DHT22;6305;48.398;11.762;2022-11-15T04:25:43;-0.50;99.90
12481;DHT22;6305;48.398;11.762;2022-11-15T04:28:11;-0.60;99.90
12481;DHT22;6305;48.398;11.762;2022-11-15T04:30:38;-0.60;99.90
12481;DHT22;6305;48.398;11.762;2022-11-15T04:33:05;-0.60;99.90
12481;DHT22;6305;48.398;11.762;2022-11-15T04:35:32;-0.60;99.90
12481;DHT22;6305;48.398;11.762;2022-11-15T04:38:00;-0.50;99.90
12481;DHT22;6305;48.398;11.762;2022-11-15T04:40:28;-0.50;99.90
12481;DHT22;6305;48.398;11.762;2022-11-15T04:42:55;-0.50;99.90
12481;DHT22;6305;48.398;11.762;2022-11-15T04:45:22;-0.60;99.90
12481;DHT22;6305;48.398;11.762;2022-11-15T04:47:48;-0.60;99.90
12481;DHT22;6305;48.398;11.762;2022-11-15T04:50:15;-0.70;99.90
12481;DHT22;6305;48.398;11.762;2022-11-15T04:52:49;-0.80;99.90
12481;DHT22;6305;48.398;11.762;2022-11-15T04:55:18;-0.90;99.90
12481;DHT22;6305;48.398;11.762;2022-11-15T04:57:44;-1.00;99.90
12481;DHT22;6305;48.398;11.762;2022-11-15T05:00:13;-1.00;99.90
12481;DHT22;6305;48.398;11.762;2022-11-15T05:02:41;-1.00;99.90
12481;DHT22;6305;48.398;11.762;2022-11-15T05:05:25;-0.90;99.90
12481;DHT22;6305;48.398;11.762;2022-11-15T05:07:52;-1.00;99.90
12481;DHT22;6305;48.398;11.762;2022-11-15T05:10:20;-1.00;99.90
12481;DHT22;6305;48.398;11.762;2022-11-15T05:12:47;-1.00;99.90
12481;DHT22;6305;48.398;11.762;2022-11-15T05:15:14;-0.90;99.90
12481;DHT22;6305;48.398;11.762;2022-11-15T05:17:41;-0.80;99.90
12481;DHT22;6305;48.398;11.762;2022-11-15T05:20:08;-0.70;99.90
12481;DHT22;6305;48.398;11.762;2022-11-15T05:22:35;-0.70;99.90
12481;DHT22;6305;48.398;11.762;2022-11-15T05:25:03;-0.60;99.90
12481;DHT22;6305;48.398;11.762;2022-11-15T05:27:31;-0.60;99.90
12481;DHT22;6305;48.398;11.762;2022-11-15T05:29:58;-0.60;99.90
12481;DHT22;6305;48.398;11.762;2022-11-15T05:32:25;-0.70;99.90
12481;DHT22;6305;48.398;11.762;2022-11-15T05:34:52;-0.80;99.90
12481;DHT22;6305;48.398;11.762;2022-11-15T05:37:19;-0.90;99.90
12481;DHT22;6305;48.398;11.762;2022-11-15T05:39:46;-1.00;99.90
12481;DHT22;6305;48.398;11.762;2022-11-15T05:42:14;-1.10;99.90
12481;DHT22;6305;48.398;11.762;2022-11-15T05:44:46;-1.10;99.90
12481;DHT22;6305;48.398;11.762;2022-11-15T05:47:16;-1.20;99.90
12481;DHT22;6305;48.398;11.762;2022-11-15T05:49:45;-1.20;99.90
12481;DHT22;6305;48.398;11.762;2022-11-15T05:52:15;-1.20;99.90
12481;DHT22;6305;48.398;11.762;2022-11-15T05:54:43;-1.20;99.90
12481;DHT22;6305;48.398;11.762;2022-11-15T05:57:10;-1.30;99.90
12481;DHT22;6305;48.398;11.762;2022-11-15T05:59:37;-1.30;99.90
12481;DHT22;6305;48.398;11.762;2022-11-15T06:02:07;-1.30;99.90
12481;DHT22;6305;48.398;11.762;2022-11-15T06:04:34;-1.30;99.90
12481;DHT22;6305;48.398;11.762;2022-11-15T06:07:01;-1.30;99.90
12481;DHT22;6305;48.398;11.762;2022-11-15T06:09:28;-1.40;99.90
12481;DHT22;6305;48.398;11.762;2022-11-15T06:11:55;-1.40;99.90
12481;DHT22;6305;48.398;11.762;2022-11-15T06:14:21;-1.30;99.90
12481;DHT22;6305;48.398;11.762;2022-11-15T06:16:48;-1.30;99.90
12481;DHT22;6305;48.398;11.762;2022-11-15T06:19:16;-1.30;99.90
12481;DHT22;6305;48.398;11.762;2022-11-15T06:21:43;-1.20;99.90
12481;DHT22;6305;48.398;11.762;2022-11-15T06:24:10;-1.20;99.90
12481;DHT22;6305;48.398;11.762;2022-11-15T06:26:37;-1.20;99.90
12481;DHT22;6305;48.398;11.762;2022-11-15T06:29:04;-1.20;99.90
12481;DHT22;6305;48.398;11.762;2022-11-15T06:31:31;-1.20;99.90
12481;DHT22;6305;48.398;11.762;2022-11-15T06:33:58;-1.10;99.90
12481;DHT22;6305;48.398;11.762;2022-11-15T06:36:26;-0.90;99.90
12481;DHT22;6305;48.398;11.762;2022-11-15T06:38:53;-0.80;99.90
12481;DHT22;6305;48.398;11.762;2022-11-15T06:41:19;-0.60;99.90
12481;DHT22;6305;48.398;11.762;2022-11-15T06:43:46;-0.50;99.90
12481;DHT22;6305;48.398;11.762;2022-11-15T06:46:13;-0.60;99.90
12481;DHT22;6305;48.398;11.762;2022-11-15T06:48:40;-0.60;99.90
12481;DHT22;6305;48.398;11.762;2022-11-15T06:51:07;-0.50;99.90
12481;DHT22;6305;48.398;11.762;2022-11-15T06:53:35;-0.30;99.90
12481;DHT22;6305;48.398;11.762;2022-11-15T06:56:04;-0.30;99.90
12481;DHT22;6305;48.398;11.762;2022-11-15T06:58:31;-0.20;99.90
12481;DHT22;6305;48.398;11.762;2022-11-15T07:00:59;-0.10;99.90
12481;DHT22;6305;48.398;11.762;2022-11-15T07:03:26;0.00;99.90
12481;DHT22;6305;48.398;11.762;2022-11-15T07:05:53;0.00;99.90
12481;DHT22;6305;48.398;11.762;2022-11-15T07:08:20;0.10;99.90
12481;DHT22;6305;48.398;11.762;2022-11-15T07:10:48;0.20;99.90
12481;DHT22;6305;48.398;11.762;2022-11-15T07:13:15;0.30;99.90
12481;DHT22;6305;48.398;11.762;2022-11-15T07:15:42;0.40;99.90
12481;DHT22;6305;48.398;11.762;2022-11-15T07:18:09;0.50;99.90
12481;DHT22;6305;48.398;11.762;2022-11-15T07:20:35;0.50;99.90
12481;DHT22;6305;48.398;11.762;2022-11-15T07:23:03;0.60;99.90
12481;DHT22;6305;48.398;11.762;2022-11-15T07:25:34;0.60;99.90
12481;DHT22;6305;48.398;11.762;2022-11-15T07:28:03;0.70;99.90
12481;DHT22;6305;48.398;11.762;2022-11-15T07:30:30;0.90;99.90
12481;DHT22;6305;48.398;11.762;2022-11-15T07:32:57;1.10;99.90
12481;DHT22;6305;48.398;11.762;2022-11-15T07:35:26;1.40;99.90
12481;DHT22;6305;48.398;11.762;2022-11-15T07:37:54;1.70;99.90
12481;DHT22;6305;48.398;11.762;2022-11-15T07:40:21;2.00;99.90
12481;DHT22;6305;48.398;11.762;2022-11-15T07:42:48;2.10;99.90
12481;DHT22;6305;48.398;11.762;2022-11-15T07:45:23;2.20;99.90
12481;DHT22;6305;48.398;11.762;2022-11-15T07:47:51;2.40;99.90
12481;DHT22;6305;48.398;11.762;2022-11-15T07:50:18;3.10;99.90
12481;DHT22;6305;48.398;11.762;2022-11-15T07:52:45;4.60;99.90
12481;DHT22;6305;48.398;11.762;2022-11-15T07:55:12;6.10;99.90
12481;DHT22;6305;48.398;11.762;2022-11-15T07:57:39;7.90;99.90
12481;DHT22;6305;48.398;11.762;2022-11-15T08:00:07;9.10;99.90
12481;DHT22;6305;48.398;11.762;2022-11-15T08:02:35;10.20;99.90
12481;DHT22;6305;48.398;11.762;2022-11-15T08:05:02;11.10;99.90
12481;DHT22;6305;48.398;11.762;2022-11-15T08:07:29;12.00;99.90
12481;DHT22;6305;48.398;11.762;2022-11-15T08:09:57;13.00;99.90
12481;DHT22;6305;48.398;11.762;2022-11-15T08:12:23;13.90;99.90
12481;DHT22;6305;48.398;11.762;2022-11-15T08:14:50;14.60;99.90
12481;DHT22;6305;48.398;11.762;2022-11-15T08:17:17;15.00;99.90
12481;DHT22;6305;48.398;11.762;2022-11-15T08:19:46;15.70;99.90
12481;DHT22;6305;48.398;11.762;2022-11-15T08:22:13;16.40;99.90
12481;DHT22;6305;48.398;11.762;2022-11-15T08:24:40;17.10;99.90
12481;DHT22;6305;48.398;11.762;2022-11-15T08:27:07;17.90;99.90
12481;DHT22;6305;48.398;11.762;2022-11-15T08:29:40;18.70;99.90
12481;DHT22;6305;48.398;11.762;2022-11-15T08:32:07;19.70;99.90
12481;DHT22;6305;48.398;11.762;2022-11-15T08:34:33;20.50;99.90
12481;DHT22;6305;48.398;11.762;2022-11-15T08:37:02;21.10;99.90
12481;DHT22;6305;48.398;11.762;2022-11-15T08:39:28;21.70;99.90
12481;DHT22;6305;48.398;11.762;2022-11-15T08:41:55;22.20;99.90
12481;DHT22;6305;48.398;11.762;2022-11-15T08:44:24;22.70;99.90
12481;DHT22;6305;48.398;11.762;2022-11-15T08:46:51;23.20;99.90
12481;DHT22;6305;48.398;11.762;2022-11-15T08:49:18;23.80;99.90
12481;DHT22;6305;48.398;11.762;2022-11-15T08:51:44;24.30;94.40
12481;DHT22;6305;48.398;11.762;2022-11-15T08:54:12;24.70;85.90
12481;DHT22;6305;48.398;11.762;2022-11-15T08:56:39;25.30;75.50
12481;DHT22;6305;48.398;11.762;2022-11-15T08:59:06;25.60;66.50
12481;DHT22;6305;48.398;11.762;2022-11-15T09:01:33;26.00;59.40
12481;DHT22;6305;48.398;11.762;2022-11-15T09:03:59;26.30;54.00
12481;DHT22;6305;48.398;11.762;2022-11-15T09:06:26;26.60;50.40
12481;DHT22;6305;48.398;11.762;2022-11-15T09:08:53;26.80;48.20
12481;DHT22;6305;48.398;11.762;2022-11-15T09:11:21;27.20;46.60
12481;DHT22;6305;48.398;11.762;2022-11-15T09:13:48;27.60;44.00
12481;DHT22;6305;48.398;11.762;2022-11-15T09:16:15;27.90;42.50
12481;DHT22;6305;48.398;11.762;2022-11-15T09:18:42;28.10;41.50
12481;DHT22;6305;48.398;11.762;2022-11-15T09:21:09;28.50;40.60
12481;DHT22;6305;48.398;11.762;2022-11-15T09:23:36;28.80;40.10
12481;DHT22;6305;48.398;11.762;2022-11-15T09:26:04;29.20;38.70
12481;DHT22;6305;48.398;11.762;2022-11-15T09:28:32;29.50;37.20
12481;DHT22;6305;48.398;11.762;2022-11-15T09:31:00;29.40;37.00
12481;DHT22;6305;48.398;11.762;2022-11-15T09:33:28;29.50;37.10
12481;DHT22;6305;48.398;11.762;2022-11-15T09:35:59;29.70;36.70
12481;DHT22;6305;48.398;11.762;2022-11-15T09:38:26;29.70;35.60
12481;DHT22;6305;48.398;11.762;2022-11-15T09:41:06;29.90;35.30
12481;DHT22;6305;48.398;11.762;2022-11-15T09:43:42;30.20;34.70
12481;DHT22;6305;48.398;11.762;2022-11-15T09:46:16;30.10;33.80
12481;DHT22;6305;48.398;11.762;2022-11-15T09:48:53;29.30;33.80
12481;DHT22;6305;48.398;11.762;2022-11-15T09:51:27;28.80;34.40
12481;DHT22;6305;48.398;11.762;2022-11-15T09:54:03;29.20;36.10
12481;DHT22;6305;48.398;11.762;2022-11-15T09:56:34;30.00;35.80
12481;DHT22;6305;48.398;11.762;2022-11-15T09:59:13;30.40;34.40
12481;DHT22;6305;48.398;11.762;2022-11-15T10:01:48;30.60;33.90
12481;DHT22;6305;48.398;11.762;2022-11-15T10:04:15;30.80;33.90
12481;DHT22;6305;48.398;11.762;2022-11-15T10:06:46;31.20;33.80
12481;DHT22;6305;48.398;11.762;2022-11-15T10:09:19;31.20;33.10
12481;DHT22;6305;48.398;11.762;2022-11-15T10:11:47;31.40;32.60
12481;DHT22;6305;48.398;11.762;2022-11-15T10:14:17;31.60;32.40
12481;DHT22;6305;48.398;11.762;2022-11-15T10:17:14;31.80;31.80
12481;DHT22;6305;48.398;11.762;2022-11-15T10:19:56;32.10;31.80
12481;DHT22;6305;48.398;11.762;2022-11-15T10:22:28;32.40;31.60
12481;DHT22;6305;48.398;11.762;2022-11-15T10:25:12;32.80;31.00
12481;DHT22;6305;48.398;11.762;2022-11-15T10:27:41;32.50;30.30
12481;DHT22;6305;48.398;11.762;2022-11-15T10:30:14;32.30;30.50
12481;DHT22;6305;48.398;11.762;2022-11-15T10:32:43;32.50;30.70
12481;DHT22;6305;48.398;11.762;2022-11-15T10:35:23;32.60;30.40
12481;DHT22;6305;48.398;11.762;2022-11-15T10:37:50;32.80;30.00
12481;DHT22;6305;48.398;11.762;2022-11-15T10:40:20;33.00;30.30
12481;DHT22;6305;48.398;11.762;2022-11-15T10:42:48;33.00;29.50
12481;DHT22;6305;48.398;11.762;2022-11-15T10:45:34;33.20;29.40
12481;DHT22;6305;48.398;11.762;2022-11-15T10:48:21;33.50;28.80
12481;DHT22;6305;48.398;11.762;2022-11-15T10:50:49;33.70;28.20
12481;DHT22;6305;48.398;11.762;2022-11-15T10:53:27;33.60;28.20
12481;DHT22;6305;48.398;11.762;2022-11-15T10:55:57;33.00;28.10
12481;DHT22;6305;48.398;11.762;2022-11-15T10:58:33;32.70;28.50
12481;DHT22;6305;48.398;11.762;2022-11-15T11:01:14;32.50;29.00
12481;DHT22;6305;48.398;11.762;2022-11-15T11:03:43;32.70;28.90
12481;DHT22;6305;48.398;11.762;2022-11-15T11:06:12;32.90;28.70
12481;DHT22;6305;48.398;11.762;2022-11-15T11:08:41;32.90;28.90
12481;DHT22;6305;48.398;11.762;2022-11-15T11:11:19;33.10;28.90
12481;DHT22;6305;48.398;11.762;2022-11-15T11:13:45;33.20;29.00
12481;DHT22;6305;48.398;11.762;2022-11-15T11:16:41;33.40;28.60
12481;DHT22;6305;48.398;11.762;2022-11-15T11:19:18;33.80;28.20
12481;DHT22;6305;48.398;11.762;2022-11-15T11:21:51;33.50;28.10
12481;DHT22;6305;48.398;11.762;2022-11-15T11:24:28;33.80;28.30
12481;DHT22;6305;48.398;11.762;2022-11-15T11:27:08;34.10;27.90
12481;DHT22;6305;48.398;11.762;2022-11-15T11:29:48;34.60;27.80
12481;DHT22;6305;48.398;11.762;2022-11-15T11:32:32;34.90;27.40
12481;DHT22;6305;48.398;11.762;2022-11-15T11:35:05;35.30;27.30
12481;DHT22;6305;48.398;11.762;2022-11-15T11:37:39;35.30;26.70
12481;DHT22;6305;48.398;11.762;2022-11-15T11:40:16;34.90;26.80
12481;DHT22;6305;48.398;11.762;2022-11-15T11:42:53;34.60;27.30
12481;DHT22;6305;48.398;11.762;2022-11-15T11:45:44;34.30;27.60
12481;DHT22;6305;48.398;11.762;2022-11-15T11:48:23;34.30;27.70
12481;DHT22;6305;48.398;11.762;2022-11-15T11:51:03;34.40;27.50
12481;DHT22;6305;48.398;11.762;2022-11-15T11:53:37;34.40;27.30
12481;DHT22;6305;48.398;11.762;2022-11-15T11:56:16;34.40;27.60
12481;DHT22;6305;48.398;11.762;2022-11-15T11:58:45;34.20;27.50
12481;DHT22;6305;48.398;11.762;2022-11-15T12:01:17;34.20;27.60
12481;DHT22;6305;48.398;11.762;2022-11-15T12:03:52;34.10;27.50
12481;DHT22;6305;48.398;11.762;2022-11-15T12:06:28;33.80;27.70
12481;DHT22;6305;48.398;11.762;2022-11-15T12:09:01;33.70;28.20
12481;DHT22;6305;48.398;11.762;2022-11-15T12:11:30;33.80;28.00
12481;DHT22;6305;48.398;11.762;2022-11-15T12:14:08;33.60;27.80
12481;DHT22;6305;48.398;11.762;2022-11-15T12:16:38;33.30;28.00
12481;DHT22;6305;48.398;11.762;2022-11-15T12:19:08;33.30;28.30
12481;DHT22;6305;48.398;11.762;2022-11-15T12:21:41;33.40;28.10
12481;DHT22;6305;48.398;11.762;2022-11-15T12:24:14;33.30;28.10
12481;DHT22;6305;48.398;11.762;2022-11-15T12:26:56;33.20;28.20
12481;DHT22;6305;48.398;11.762;2022-11-15T12:29:29;33.00;28.50
12481;DHT22;6305;48.398;11.762;2022-11-15T12:31:59;32.80;29.10
12481;DHT22;6305;48.398;11.762;2022-11-15T12:34:37;32.80;28.50
12481;DHT22;6305;48.398;11.762;2022-11-15T12:40:31;32.40;28.90
12481;DHT22;6305;48.398;11.762;2022-11-15T12:45:54;31.90;28.60
12481;DHT22;6305;48.398;11.762;2022-11-15T12:54:54;29.40;30.50
12481;DHT22;6305;48.398;11.762;2022-11-15T12:57:39;28.70;32.40
12481;DHT22;6305;48.398;11.762;2022-11-15T13:03:21;28.60;32.20
12481;DHT22;6305;48.398;11.762;2022-11-15T13:06:33;27.80;33.10
12481;DHT22;6305;48.398;11.762;2022-11-15T13:08:58;27.60;33.70
12481;DHT22;6305;48.398;11.762;2022-11-15T13:11:48;27.00;34.00
12481;DHT22;6305;48.398;11.762;2022-11-15T13:14:49;26.50;34.90
12481;DHT22;6305;48.398;11.762;2022-11-15T13:17:24;26.40;36.00
12481;DHT22;6305;48.398;11.762;2022-11-15T13:19:59;26.90;35.60
12481;DHT22;6305;48.398;11.762;2022-11-15T13:22:26;27.40;34.90
12481;DHT22;6305;48.398;11.762;2022-11-15T13:25:18;27.90;34.60
12481;DHT22;6305;48.398;11.762;2022-11-15T13:27:47;28.10;33.20
12481;DHT22;6305;48.398;11.762;2022-11-15T13:30:20;28.20;33.80
12481;DHT22;6305;48.398;11.762;2022-11-15T13:32:47;28.10;33.70
12481;DHT22;6305;48.398;11.762;2022-11-15T13:35:23;27.80;33.90
12481;DHT22;6305;48.398;11.762;2022-11-15T13:37:50;27.50;34.00
12481;DHT22;6305;48.398;11.762;2022-11-15T13:40:25;27.40;34.30
12481;DHT22;6305;48.398;11.762;2022-11-15T13:42:53;27.60;34.50
12481;DHT22;6305;48.398;11.762;2022-11-15T13:45:20;27.50;34.20
12481;DHT22;6305;48.398;11.762;2022-11-15T13:47:53;27.60;34.10
12481;DHT22;6305;48.398;11.762;2022-11-15T13:50:21;27.90;34.00
12481;DHT22;6305;48.398;11.762;2022-11-15T13:52:50;28.00;33.60
12481;DHT22;6305;48.398;11.762;2022-11-15T13:55:18;27.70;33.80
12481;DHT22;6305;48.398;11.762;2022-11-15T13:57:49;27.20;34.40
12481;DHT22;6305;48.398;11.762;2022-11-15T14:00:32;27.00;35.40
12481;DHT22;6305;48.398;11.762;2022-11-15T14:03:07;27.30;35.50
12481;DHT22;6305;48.398;11.762;2022-11-15T14:05:35;27.60;35.00
12481;DHT22;6305;48.398;11.762;2022-11-15T14:08:04;27.70;34.60
12481;DHT22;6305;48.398;11.762;2022-11-15T14:10:39;27.50;34.00
12481;DHT22;6305;48.398;11.762;2022-11-15T14:13:26;26.70;34.90
12481;DHT22;6305;48.398;11.762;2022-11-15T14:15:53;25.90;36.00
12481;DHT22;6305;48.398;11.762;2022-11-15T14:18:39;24.90;36.90
12481;DHT22;6305;48.398;11.762;2022-11-15T14:21:07;23.60;38.30
12481;DHT22;6305;48.398;11.762;2022-11-15T14:23:34;22.60;40.30
12481;DHT22;6305;48.398;11.762;2022-11-15T14:26:01;22.30;41.60
12481;DHT22;6305;48.398;11.762;2022-11-15T14:28:31;22.10;43.20
12481;DHT22;6305;48.398;11.762;2022-11-15T14:31:04;22.30;43.00
12481;DHT22;6305;48.398;11.762;2022-11-15T14:33:34;22.50;42.80
12481;DHT22;6305;48.398;11.762;2022-11-15T14:36:04;22.70;42.20
12481;DHT22;6305;48.398;11.762;2022-11-15T14:38:31;22.90;42.20
12481;DHT22;6305;48.398;11.762;2022-11-15T14:40:58;23.00;41.70
12481;DHT22;6305;48.398;11.762;2022-11-15T14:43:25;22.70;41.30
12481;DHT22;6305;48.398;11.762;2022-11-15T14:45:53;22.10;41.70
12481;DHT22;6305;48.398;11.762;2022-11-15T14:48:20;20.80;42.50
12481;DHT22;6305;48.398;11.762;2022-11-15T14:50:48;19.40;45.00
12481;DHT22;6305;48.398;11.762;2022-11-15T14:53:16;17.90;47.50
12481;DHT22;6305;48.398;11.762;2022-11-15T14:55:45;16.70;50.00
12481;DHT22;6305;48.398;11.762;2022-11-15T14:58:12;15.80;52.50
12481;DHT22;6305;48.398;11.762;2022-11-15T15:00:40;14.90;55.00
12481;DHT22;6305;48.398;11.762;2022-11-15T15:03:08;14.00;56.80
12481;DHT22;6305;48.398;11.762;2022-11-15T15:05:37;13.30;59.30
12481;DHT22;6305;48.398;11.762;2022-11-15T15:08:04;12.60;62.30
12481;DHT22;6305;48.398;11.762;2022-11-15T15:10:33;11.90;67.10
12481;DHT22;6305;48.398;11.762;2022-11-15T15:13:01;11.40;74.70
12481;DHT22;6305;48.398;11.762;2022-11-15T15:15:32;11.00;85.40
12481;DHT22;6305;48.398;11.762;2022-11-15T15:17:59;10.60;93.40
12481;DHT22;6305;48.398;11.762;2022-11-15T15:20:28;10.20;98.10
12481;DHT22;6305;48.398;11.762;2022-11-15T15:23:02;9.90;99.90
12481;DHT22;6305;48.398;11.762;2022-11-15T15:25:31;9.50;99.90
12481;DHT22;6305;48.398;11.762;2022-11-15T15:28:00;9.30;99.90
12481;DHT22;6305;48.398;11.762;2022-11-15T15:30:29;9.00;99.90
12481;DHT22;6305;48.398;11.762;2022-11-15T15:32:56;8.70;99.90
12481;DHT22;6305;48.398;11.762;2022-11-15T15:35:24;8.50;99.90
12481;DHT22;6305;48.398;11.762;2022-11-15T15:37:55;8.20;99.90
12481;DHT22;6305;48.398;11.762;2022-11-15T15:40:23;8.00;99.90
12481;DHT22;6305;48.398;11.762;2022-11-15T15:42:50;7.80;99.90
12481;DHT22;6305;48.398;11.762;2022-11-15T15:45:18;7.70;99.90
12481;DHT22;6305;48.398;11.762;2022-11-15T15:47:45;7.50;99.90
12481;DHT22;6305;48.398;11.762;2022-11-15T15:50:20;7.40;99.90
12481;DHT22;6305;48.398;11.762;2022-11-15T15:52:47;7.20;99.90
12481;DHT22;6305;48.398;11.762;2022-11-15T15:55:15;7.10;99.90
12481;DHT22;6305;48.398;11.762;2022-11-15T15:57:42;6.90;99.90
12481;DHT22;6305;48.398;11.762;2022-11-15T16:00:10;6.80;99.90
12481;DHT22;6305;48.398;11.762;2022-11-15T16:02:37;6.70;99.90
12481;DHT22;6305;48.398;11.762;2022-11-15T16:05:05;6.60;99.90
12481;DHT22;6305;48.398;11.762;2022-11-15T16:07:32;6.50;99.90
12481;DHT22;6305;48.398;11.762;2022-11-15T16:10:00;6.40;99.90
12481;DHT22;6305;48.398;11.762;2022-11-15T16:12:29;6.40;99.90
12481;DHT22;6305;48.398;11.762;2022-11-15T16:14:56;6.30;99.90